sensor_id;sensor_type;location;lat;lon;timestamp;P1;durP1;ratioP1;P2;durP2;ratioP2
56329;SDS011;42236;48.058;10.632;2023-03-04T00:00:53;42.67;;;20.67;;
56329;SDS011;42236;48.058;10.632;2023-03-04T00:03:39;39.63;;;19.10;;
56329;SDS011;42236;48.058;10.632;2023-03-04T00:06:25;36.97;;;18.37;;
56329;SDS011;42236;48.058;10.632;2023-03-04T00:09:11;41.00;;;18.80;;
56329;SDS011;42236;48.058;10.632;2023-03-04T00:11:56;35.90;;;18.87;;
56329;SDS011;42236;48.058;10.632;2023-03-04T00:14:42;34.67;;;18.30;;
56329;SDS011;42236;48.058;10.632;2023-03-04T00:17:28;41.97;;;19.60;;
56329;SDS011;42236;48.058;10.632;2023-03-04T00:20:15;38.17;;;19.07;;
56329;SDS011;42236;48.058;10.632;2023-03-04T00:23:01;34.87;;;18.10;;
56329;SDS011;42236;48.058;10.632;2023-03-04T00:25:47;41.60;;;19.47;;
56329;SDS011;42236;48.058;10.632;2023-03-04T00:28:32;36.93;;;16.67;;
56329;SDS011;42236;48.058;10.632;2023-03-04T00:31:18;33.67;;;17.60;;
56329;SDS011;42236;48.058;10.632;2023-03-04T00:34:04;34.20;;;17.60;;
56329;SDS011;42236;48.058;10.632;2023-03-04T00:36:49;34.33;;;17.97;;
56329;SDS011;42236;48.058;10.632;2023-03-04T00:39:35;35.07;;;17.00;;
56329;SDS011;42236;48.058;10.632;2023-03-04T00:42:21;35.63;;;17.17;;
56329;SDS011;42236;48.058;10.632;2023-03-04T00:45:07;32.80;;;16.97;;
56329;SDS011;42236;48.058;10.632;2023-03-04T00:47:53;32.37;;;16.60;;
56329;SDS011;42236;48.058;10.632;2023-03-04T00:50:38;40.40;;;17.37;;
56329;SDS011;42236;48.058;10.632;2023-03-04T00:53:24;30.27;;;15.73;;
56329;SDS011;42236;48.058;10.632;2023-03-04T00:56:10;39.80;;;16.17;;
56329;SDS011;42236;48.058;10.632;2023-03-04T00:58:56;40.47;;;17.57;;
56329;SDS011;42236;48.058;10.632;2023-03-04T01:01:41;31.13;;;16.47;;
56329;SDS011;42236;48.058;10.632;2023-03-04T01:04:27;32.87;;;17.50;;
56329;SDS011;42236;48.058;10.632;2023-03-04T01:07:13;41.03;;;17.97;;
56329;SDS011;42236;48.058;10.632;2023-03-04T01:09:58;42.00;;;17.03;;
56329;SDS011;42236;48.058;10.632;2023-03-04T01:12:44;47.77;;;17.10;;
56329;SDS011;42236;48.058;10.632;2023-03-04T01:15:30;38.60;;;16.97;;
56329;SDS011;42236;48.058;10.632;2023-03-04T01:18:15;29.17;;;16.37;;
56329;SDS011;42236;48.058;10.632;2023-03-04T01:21:01;37.53;;;16.57;;
56329;SDS011;42236;48.058;10.632;2023-03-04T01:23:47;32.80;;;15.30;;
56329;SDS011;42236;48.058;10.632;2023-03-04T01:26:33;33.23;;;16.30;;
56329;SDS011;42236;48.058;10.632;2023-03-04T01:29:19;26.43;;;16.20;;
56329;SDS011;42236;48.058;10.632;2023-03-04T01:32:04;30.83;;;16.23;;
56329;SDS011;42236;48.058;10.632;2023-03-04T01:34:50;24.70;;;14.33;;
56329;SDS011;42236;48.058;10.632;2023-03-04T01:37:36;29.10;;;15.10;;
56329;SDS011;42236;48.058;10.632;2023-03-04T01:40:21;25.83;;;14.57;;
56329;SDS011;42236;48.058;10.632;2023-03-04T01:43:20;25.27;;;14.77;;
56329;SDS011;42236;48.058;10.632;2023-03-04T01:46:09;23.57;;;13.73;;
56329;SDS011;42236;48.058;10.632;2023-03-04T01:48:57;25.57;;;14.27;;
56329;SDS011;42236;48.058;10.632;2023-03-04T01:51:45;26.37;;;14.27;;
56329;SDS011;42236;48.058;10.632;2023-03-04T01:54:33;24.07;;;13.17;;
56329;SDS011;42236;48.058;10.632;2023-03-04T01:57:21;26.50;;;15.30;;
56329;SDS011;42236;48.058;10.632;2023-03-04T02:00:25;27.53;;;14.83;;
56329;SDS011;42236;48.058;10.632;2023-03-04T02:03:16;27.87;;;14.77;;
56329;SDS011;42236;48.058;10.632;2023-03-04T02:06:06;26.70;;;15.33;;
56329;SDS011;42236;48.058;10.632;2023-03-04T02:08:52;24.50;;;14.90;;
56329;SDS011;42236;48.058;10.632;2023-03-04T02:11:38;21.17;;;12.63;;
56329;SDS011;42236;48.058;10.632;2023-03-04T02:14:24;26.73;;;14.63;;
56329;SDS011;42236;48.058;10.632;2023-03-04T02:17:10;27.47;;;14.60;;
56329;SDS011;42236;48.058;10.632;2023-03-04T02:23:15;24.77;;;13.53;;
56329;SDS011;42236;48.058;10.632;2023-03-04T02:26:10;25.10;;;13.73;;
56329;SDS011;42236;48.058;10.632;2023-03-04T02:29:01;25.10;;;14.03;;
56329;SDS011;42236;48.058;10.632;2023-03-04T02:31:49;25.83;;;14.53;;
56329;SDS011;42236;48.058;10.632;2023-03-04T02:34:36;26.73;;;15.00;;
56329;SDS011;42236;48.058;10.632;2023-03-04T02:37:25;27.07;;;14.80;;
56329;SDS011;42236;48.058;10.632;2023-03-04T02:40:16;27.87;;;14.13;;
56329;SDS011;42236;48.058;10.632;2023-03-04T02:43:10;25.40;;;14.83;;
56329;SDS011;42236;48.058;10.632;2023-03-04T02:45:56;24.33;;;12.93;;
56329;SDS011;42236;48.058;10.632;2023-03-04T02:48:42;28.10;;;14.60;;
56329;SDS011;42236;48.058;10.632;2023-03-04T02:51:27;27.43;;;15.43;;
56329;SDS011;42236;48.058;10.632;2023-03-04T02:54:17;25.83;;;13.37;;
56329;SDS011;42236;48.058;10.632;2023-03-04T02:57:05;24.17;;;12.13;;
56329;SDS011;42236;48.058;10.632;2023-03-04T02:59:53;22.37;;;12.77;;
56329;SDS011;42236;48.058;10.632;2023-03-04T03:02:39;19.33;;;12.43;;
56329;SDS011;42236;48.058;10.632;2023-03-04T03:05:25;22.80;;;13.73;;
56329;SDS011;42236;48.058;10.632;2023-03-04T03:08:13;23.30;;;13.90;;
56329;SDS011;42236;48.058;10.632;2023-03-04T03:10:58;18.63;;;11.77;;
56329;SDS011;42236;48.058;10.632;2023-03-04T03:13:44;22.80;;;13.43;;
56329;SDS011;42236;48.058;10.632;2023-03-04T03:16:30;20.00;;;12.97;;
56329;SDS011;42236;48.058;10.632;2023-03-04T03:19:15;21.27;;;12.93;;
56329;SDS011;42236;48.058;10.632;2023-03-04T03:22:01;21.77;;;12.50;;
56329;SDS011;42236;48.058;10.632;2023-03-04T03:24:47;24.33;;;12.50;;
56329;SDS011;42236;48.058;10.632;2023-03-04T03:27:32;25.70;;;13.93;;
56329;SDS011;42236;48.058;10.632;2023-03-04T03:30:18;20.33;;;11.67;;
56329;SDS011;42236;48.058;10.632;2023-03-04T03:33:04;23.00;;;13.10;;
56329;SDS011;42236;48.058;10.632;2023-03-04T03:35:49;20.93;;;12.53;;
56329;SDS011;42236;48.058;10.632;2023-03-04T03:38:35;21.30;;;12.63;;
56329;SDS011;42236;48.058;10.632;2023-03-04T03:41:21;21.03;;;12.73;;
56329;SDS011;42236;48.058;10.632;2023-03-04T03:44:06;21.93;;;12.97;;
56329;SDS011;42236;48.058;10.632;2023-03-04T03:46:52;21.43;;;12.40;;
56329;SDS011;42236;48.058;10.632;2023-03-04T03:49:38;24.03;;;13.60;;
56329;SDS011;42236;48.058;10.632;2023-03-04T03:52:23;23.67;;;12.53;;
56329;SDS011;42236;48.058;10.632;2023-03-04T03:55:09;19.60;;;11.60;;
56329;SDS011;42236;48.058;10.632;2023-03-04T03:57:55;24.17;;;13.10;;
56329;SDS011;42236;48.058;10.632;2023-03-04T04:00:40;27.17;;;14.20;;
56329;SDS011;42236;48.058;10.632;2023-03-04T04:03:26;22.57;;;13.37;;
56329;SDS011;42236;48.058;10.632;2023-03-04T04:06:11;21.23;;;12.73;;
56329;SDS011;42236;48.058;10.632;2023-03-04T04:08:57;24.27;;;13.57;;
56329;SDS011;42236;48.058;10.632;2023-03-04T04:11:43;20.77;;;12.10;;
56329;SDS011;42236;48.058;10.632;2023-03-04T04:14:29;22.97;;;13.33;;
56329;SDS011;42236;48.058;10.632;2023-03-04T04:17:14;22.40;;;12.80;;
56329;SDS011;42236;48.058;10.632;2023-03-04T04:20:00;23.37;;;12.73;;
56329;SDS011;42236;48.058;10.632;2023-03-04T04:22:46;23.83;;;12.07;;
56329;SDS011;42236;48.058;10.632;2023-03-04T04:25:31;23.10;;;13.10;;
56329;SDS011;42236;48.058;10.632;2023-03-04T04:28:17;19.70;;;11.60;;
56329;SDS011;42236;48.058;10.632;2023-03-04T04:31:05;22.87;;;12.23;;
56329;SDS011;42236;48.058;10.632;2023-03-04T04:33:52;25.73;;;14.00;;
56329;SDS011;42236;48.058;10.632;2023-03-04T04:36:38;24.20;;;13.80;;
56329;SDS011;42236;48.058;10.632;2023-03-04T04:39:24;24.77;;;13.67;;
56329;SDS011;42236;48.058;10.632;2023-03-04T04:42:10;27.43;;;13.87;;
56329;SDS011;42236;48.058;10.632;2023-03-04T04:44:55;24.73;;;13.77;;
56329;SDS011;42236;48.058;10.632;2023-03-04T04:47:42;27.97;;;14.20;;
56329;SDS011;42236;48.058;10.632;2023-03-04T04:50:27;27.50;;;13.17;;
56329;SDS011;42236;48.058;10.632;2023-03-04T04:53:13;26.10;;;13.07;;
56329;SDS011;42236;48.058;10.632;2023-03-04T04:55:58;20.97;;;12.40;;
56329;SDS011;42236;48.058;10.632;2023-03-04T04:58:45;20.33;;;12.07;;
56329;SDS011;42236;48.058;10.632;2023-03-04T05:01:31;20.73;;;12.77;;
56329;SDS011;42236;48.058;10.632;2023-03-04T05:04:17;24.73;;;13.03;;
56329;SDS011;42236;48.058;10.632;2023-03-04T05:07:02;23.00;;;13.97;;
56329;SDS011;42236;48.058;10.632;2023-03-04T05:09:48;26.73;;;14.13;;
56329;SDS011;42236;48.058;10.632;2023-03-04T05:12:34;26.67;;;14.20;;
56329;SDS011;42236;48.058;10.632;2023-03-04T05:15:19;24.87;;;13.50;;
56329;SDS011;42236;48.058;10.632;2023-03-04T05:18:05;28.17;;;15.73;;
56329;SDS011;42236;48.058;10.632;2023-03-04T05:20:51;25.33;;;14.40;;
56329;SDS011;42236;48.058;10.632;2023-03-04T05:23:39;21.20;;;13.47;;
56329;SDS011;42236;48.058;10.632;2023-03-04T05:26:26;28.60;;;13.83;;
56329;SDS011;42236;48.058;10.632;2023-03-04T05:29:11;24.70;;;13.63;;
56329;SDS011;42236;48.058;10.632;2023-03-04T05:31:57;26.33;;;14.20;;
56329;SDS011;42236;48.058;10.632;2023-03-04T05:34:43;24.53;;;14.10;;
56329;SDS011;42236;48.058;10.632;2023-03-04T05:37:28;26.03;;;13.43;;
56329;SDS011;42236;48.058;10.632;2023-03-04T05:40:14;23.97;;;12.53;;
56329;SDS011;42236;48.058;10.632;2023-03-04T05:43:00;23.83;;;12.20;;
56329;SDS011;42236;48.058;10.632;2023-03-04T05:45:45;24.50;;;13.07;;
56329;SDS011;42236;48.058;10.632;2023-03-04T05:48:33;24.97;;;13.80;;
56329;SDS011;42236;48.058;10.632;2023-03-04T05:51:19;26.00;;;15.17;;
56329;SDS011;42236;48.058;10.632;2023-03-04T05:54:05;25.63;;;15.00;;
56329;SDS011;42236;48.058;10.632;2023-03-04T05:56:51;27.03;;;13.70;;
56329;SDS011;42236;48.058;10.632;2023-03-04T05:59:37;28.17;;;15.27;;
56329;SDS011;42236;48.058;10.632;2023-03-04T06:02:22;28.00;;;14.57;;
56329;SDS011;42236;48.058;10.632;2023-03-04T06:05:09;27.13;;;15.27;;
56329;SDS011;42236;48.058;10.632;2023-03-04T06:07:55;27.37;;;15.07;;
56329;SDS011;42236;48.058;10.632;2023-03-04T06:10:41;25.10;;;14.43;;
56329;SDS011;42236;48.058;10.632;2023-03-04T06:13:27;24.33;;;14.30;;
56329;SDS011;42236;48.058;10.632;2023-03-04T06:16:13;26.00;;;13.30;;
56329;SDS011;42236;48.058;10.632;2023-03-04T06:18:58;27.03;;;13.80;;
56329;SDS011;42236;48.058;10.632;2023-03-04T06:21:44;27.90;;;14.93;;
56329;SDS011;42236;48.058;10.632;2023-03-04T06:24:30;28.20;;;16.27;;
56329;SDS011;42236;48.058;10.632;2023-03-04T06:27:15;26.20;;;13.23;;
56329;SDS011;42236;48.058;10.632;2023-03-04T06:30:01;26.03;;;14.27;;
56329;SDS011;42236;48.058;10.632;2023-03-04T06:32:47;25.20;;;13.70;;
56329;SDS011;42236;48.058;10.632;2023-03-04T06:35:33;27.30;;;13.87;;
56329;SDS011;42236;48.058;10.632;2023-03-04T06:38:18;26.00;;;14.17;;
56329;SDS011;42236;48.058;10.632;2023-03-04T06:41:05;24.43;;;14.83;;
56329;SDS011;42236;48.058;10.632;2023-03-04T06:43:53;29.17;;;15.00;;
56329;SDS011;42236;48.058;10.632;2023-03-04T06:46:39;29.37;;;15.37;;
56329;SDS011;42236;48.058;10.632;2023-03-04T06:49:24;26.83;;;15.43;;
56329;SDS011;42236;48.058;10.632;2023-03-04T06:52:10;30.90;;;16.17;;
56329;SDS011;42236;48.058;10.632;2023-03-04T06:54:57;31.27;;;15.83;;
56329;SDS011;42236;48.058;10.632;2023-03-04T06:57:42;27.37;;;14.40;;
56329;SDS011;42236;48.058;10.632;2023-03-04T07:00:28;25.03;;;14.20;;
56329;SDS011;42236;48.058;10.632;2023-03-04T07:03:14;24.93;;;14.23;;
56329;SDS011;42236;48.058;10.632;2023-03-04T07:06:00;26.50;;;14.20;;
56329;SDS011;42236;48.058;10.632;2023-03-04T07:08:46;25.97;;;15.70;;
56329;SDS011;42236;48.058;10.632;2023-03-04T07:11:31;25.67;;;14.83;;
56329;SDS011;42236;48.058;10.632;2023-03-04T07:14:17;25.77;;;13.77;;
56329;SDS011;42236;48.058;10.632;2023-03-04T07:17:03;29.70;;;14.50;;
56329;SDS011;42236;48.058;10.632;2023-03-04T07:19:49;23.93;;;14.03;;
56329;SDS011;42236;48.058;10.632;2023-03-04T07:22:34;28.57;;;15.87;;
56329;SDS011;42236;48.058;10.632;2023-03-04T07:25:20;32.13;;;16.20;;
56329;SDS011;42236;48.058;10.632;2023-03-04T07:28:06;33.07;;;16.50;;
56329;SDS011;42236;48.058;10.632;2023-03-04T07:30:51;32.13;;;17.87;;
56329;SDS011;42236;48.058;10.632;2023-03-04T07:33:37;31.53;;;17.10;;
56329;SDS011;42236;48.058;10.632;2023-03-04T07:36:23;32.37;;;17.30;;
56329;SDS011;42236;48.058;10.632;2023-03-04T07:39:09;36.17;;;18.77;;
56329;SDS011;42236;48.058;10.632;2023-03-04T07:41:57;32.27;;;17.93;;
56329;SDS011;42236;48.058;10.632;2023-03-04T07:44:43;38.37;;;18.70;;
56329;SDS011;42236;48.058;10.632;2023-03-04T07:47:29;38.47;;;19.67;;
56329;SDS011;42236;48.058;10.632;2023-03-04T07:50:14;36.47;;;18.70;;
56329;SDS011;42236;48.058;10.632;2023-03-04T07:53:00;37.03;;;18.67;;
56329;SDS011;42236;48.058;10.632;2023-03-04T07:55:46;41.60;;;20.63;;
56329;SDS011;42236;48.058;10.632;2023-03-04T07:58:32;40.10;;;20.27;;
56329;SDS011;42236;48.058;10.632;2023-03-04T08:01:22;40.10;;;20.00;;
56329;SDS011;42236;48.058;10.632;2023-03-04T08:04:09;41.23;;;20.27;;
56329;SDS011;42236;48.058;10.632;2023-03-04T08:06:55;44.17;;;20.67;;
56329;SDS011;42236;48.058;10.632;2023-03-04T08:09:41;44.90;;;21.53;;
56329;SDS011;42236;48.058;10.632;2023-03-04T08:12:27;43.73;;;22.03;;
56329;SDS011;42236;48.058;10.632;2023-03-04T08:15:14;43.37;;;21.90;;
56329;SDS011;42236;48.058;10.632;2023-03-04T08:18:00;39.87;;;20.97;;
56329;SDS011;42236;48.058;10.632;2023-03-04T08:20:46;41.67;;;19.63;;
56329;SDS011;42236;48.058;10.632;2023-03-04T08:23:31;43.80;;;21.47;;
56329;SDS011;42236;48.058;10.632;2023-03-04T08:26:23;47.40;;;23.07;;
56329;SDS011;42236;48.058;10.632;2023-03-04T08:29:12;40.03;;;21.80;;
56329;SDS011;42236;48.058;10.632;2023-03-04T08:32:00;48.63;;;24.27;;
56329;SDS011;42236;48.058;10.632;2023-03-04T08:34:46;56.70;;;26.10;;
56329;SDS011;42236;48.058;10.632;2023-03-04T08:37:31;47.03;;;23.67;;
56329;SDS011;42236;48.058;10.632;2023-03-04T08:40:17;53.90;;;26.13;;
56329;SDS011;42236;48.058;10.632;2023-03-04T08:43:03;50.57;;;25.50;;
56329;SDS011;42236;48.058;10.632;2023-03-04T08:45:48;54.07;;;26.77;;
56329;SDS011;42236;48.058;10.632;2023-03-04T08:48:35;65.13;;;28.40;;
56329;SDS011;42236;48.058;10.632;2023-03-04T08:51:21;56.63;;;30.13;;
56329;SDS011;42236;48.058;10.632;2023-03-04T08:54:07;52.43;;;26.73;;
56329;SDS011;42236;48.058;10.632;2023-03-04T08:56:52;63.00;;;27.60;;
56329;SDS011;42236;48.058;10.632;2023-03-04T08:59:38;58.20;;;27.60;;
56329;SDS011;42236;48.058;10.632;2023-03-04T09:02:24;58.37;;;28.10;;
56329;SDS011;42236;48.058;10.632;2023-03-04T09:05:09;58.73;;;29.70;;
56329;SDS011;42236;48.058;10.632;2023-03-04T09:07:55;56.07;;;28.53;;
56329;SDS011;42236;48.058;10.632;2023-03-04T09:10:41;65.40;;;29.93;;
56329;SDS011;42236;48.058;10.632;2023-03-04T09:13:28;58.13;;;29.13;;
56329;SDS011;42236;48.058;10.632;2023-03-04T09:16:14;62.57;;;30.53;;
56329;SDS011;42236;48.058;10.632;2023-03-04T09:19:00;59.10;;;28.73;;
56329;SDS011;42236;48.058;10.632;2023-03-04T09:21:46;60.63;;;29.70;;
56329;SDS011;42236;48.058;10.632;2023-03-04T09:24:32;56.00;;;27.23;;
56329;SDS011;42236;48.058;10.632;2023-03-04T09:27:17;56.40;;;28.60;;
56329;SDS011;42236;48.058;10.632;2023-03-04T09:30:03;60.67;;;28.37;;
56329;SDS011;42236;48.058;10.632;2023-03-04T09:32:49;60.57;;;29.13;;
56329;SDS011;42236;48.058;10.632;2023-03-04T09:35:35;55.57;;;29.10;;
56329;SDS011;42236;48.058;10.632;2023-03-04T09:38:21;57.17;;;28.17;;
56329;SDS011;42236;48.058;10.632;2023-03-04T09:41:19;64.50;;;30.23;;
56329;SDS011;42236;48.058;10.632;2023-03-04T09:44:41;61.70;;;30.60;;
56329;SDS011;42236;48.058;10.632;2023-03-04T09:47:27;62.47;;;31.17;;
56329;SDS011;42236;48.058;10.632;2023-03-04T09:50:15;65.87;;;30.07;;
56329;SDS011;42236;48.058;10.632;2023-03-04T09:56:05;68.17;;;31.13;;
56329;SDS011;42236;48.058;10.632;2023-03-04T10:02:06;55.40;;;28.67;;
56329;SDS011;42236;48.058;10.632;2023-03-04T10:05:05;61.27;;;29.83;;
56329;SDS011;42236;48.058;10.632;2023-03-04T10:07:57;54.13;;;28.23;;
56329;SDS011;42236;48.058;10.632;2023-03-04T10:10:45;53.80;;;26.07;;
56329;SDS011;42236;48.058;10.632;2023-03-04T10:20:25;60.33;;;27.07;;
56329;SDS011;42236;48.058;10.632;2023-03-04T10:23:17;58.50;;;27.17;;
56329;SDS011;42236;48.058;10.632;2023-03-04T10:26:13;60.70;;;29.00;;
56329;SDS011;42236;48.058;10.632;2023-03-04T10:29:00;54.03;;;26.00;;
56329;SDS011;42236;48.058;10.632;2023-03-04T10:31:49;56.17;;;26.37;;
56329;SDS011;42236;48.058;10.632;2023-03-04T10:34:35;49.80;;;25.73;;
56329;SDS011;42236;48.058;10.632;2023-03-04T10:37:21;50.70;;;26.43;;
56329;SDS011;42236;48.058;10.632;2023-03-04T10:40:16;50.60;;;26.80;;
56329;SDS011;42236;48.058;10.632;2023-03-04T10:43:04;54.87;;;27.77;;
56329;SDS011;42236;48.058;10.632;2023-03-04T10:45:56;51.27;;;26.23;;
56329;SDS011;42236;48.058;10.632;2023-03-04T10:48:43;48.67;;;24.23;;
56329;SDS011;42236;48.058;10.632;2023-03-04T10:51:29;47.40;;;25.03;;
56329;SDS011;42236;48.058;10.632;2023-03-04T10:57:16;41.63;;;22.00;;
56329;SDS011;42236;48.058;10.632;2023-03-04T11:00:28;44.80;;;23.40;;
56329;SDS011;42236;48.058;10.632;2023-03-04T11:03:32;40.57;;;22.83;;
56329;SDS011;42236;48.058;10.632;2023-03-04T11:06:21;54.20;;;25.07;;
56329;SDS011;42236;48.058;10.632;2023-03-04T11:09:16;45.20;;;24.73;;
56329;SDS011;42236;48.058;10.632;2023-03-04T11:12:10;52.57;;;26.27;;
56329;SDS011;42236;48.058;10.632;2023-03-04T11:15:01;45.07;;;23.27;;
56329;SDS011;42236;48.058;10.632;2023-03-04T11:17:49;47.60;;;25.37;;
56329;SDS011;42236;48.058;10.632;2023-03-04T11:20:38;49.47;;;24.10;;
56329;SDS011;42236;48.058;10.632;2023-03-04T11:23:43;44.13;;;22.80;;
56329;SDS011;42236;48.058;10.632;2023-03-04T11:26:39;45.03;;;24.40;;
56329;SDS011;42236;48.058;10.632;2023-03-04T11:29:34;43.20;;;22.33;;
56329;SDS011;42236;48.058;10.632;2023-03-04T11:32:27;41.83;;;22.40;;
56329;SDS011;42236;48.058;10.632;2023-03-04T11:38:19;40.63;;;22.70;;
56329;SDS011;42236;48.058;10.632;2023-03-04T11:43:58;39.47;;;21.23;;
56329;SDS011;42236;48.058;10.632;2023-03-04T11:46:53;39.70;;;23.17;;
56329;SDS011;42236;48.058;10.632;2023-03-04T11:49:53;38.10;;;19.80;;
56329;SDS011;42236;48.058;10.632;2023-03-04T12:01:37;38.30;;;19.40;;
56329;SDS011;42236;48.058;10.632;2023-03-04T12:29:39;33.53;;;18.10;;
56329;SDS011;42236;48.058;10.632;2023-03-04T12:48:21;39.87;;;19.80;;
56329;SDS011;42236;48.058;10.632;2023-03-04T12:51:40;39.20;;;19.93;;
56329;SDS011;42236;48.058;10.632;2023-03-04T12:54:38;35.90;;;18.43;;
56329;SDS011;42236;48.058;10.632;2023-03-04T12:57:28;36.83;;;20.03;;
56329;SDS011;42236;48.058;10.632;2023-03-04T13:10:08;35.33;;;17.13;;
56329;SDS011;42236;48.058;10.632;2023-03-04T13:12:58;35.13;;;19.40;;
56329;SDS011;42236;48.058;10.632;2023-03-04T13:15:44;32.60;;;18.70;;
56329;SDS011;42236;48.058;10.632;2023-03-04T13:18:46;29.97;;;17.37;;
56329;SDS011;42236;48.058;10.632;2023-03-04T13:21:33;34.00;;;19.07;;
56329;SDS011;42236;48.058;10.632;2023-03-04T13:24:43;37.83;;;20.93;;
56329;SDS011;42236;48.058;10.632;2023-03-04T13:27:43;36.80;;;18.50;;
56329;SDS011;42236;48.058;10.632;2023-03-04T13:36:07;28.40;;;17.07;;
56329;SDS011;42236;48.058;10.632;2023-03-04T13:39:33;30.17;;;18.50;;
56329;SDS011;42236;48.058;10.632;2023-03-04T13:42:41;36.80;;;18.20;;
56329;SDS011;42236;48.058;10.632;2023-03-04T13:48:35;33.13;;;18.17;;
56329;SDS011;42236;48.058;10.632;2023-03-04T13:51:33;31.97;;;18.50;;
56329;SDS011;42236;48.058;10.632;2023-03-04T13:54:29;33.80;;;18.83;;
56329;SDS011;42236;48.058;10.632;2023-03-04T13:57:18;31.57;;;18.83;;
56329;SDS011;42236;48.058;10.632;2023-03-04T14:00:05;39.30;;;18.67;;
56329;SDS011;42236;48.058;10.632;2023-03-04T14:03:10;29.77;;;17.30;;
56329;SDS011;42236;48.058;10.632;2023-03-04T14:06:17;37.97;;;18.13;;
56329;SDS011;42236;48.058;10.632;2023-03-04T14:09:16;35.67;;;18.00;;
56329;SDS011;42236;48.058;10.632;2023-03-04T14:12:11;36.77;;;18.53;;
56329;SDS011;42236;48.058;10.632;2023-03-04T14:15:00;30.93;;;17.37;;
56329;SDS011;42236;48.058;10.632;2023-03-04T14:18:03;28.90;;;16.70;;
56329;SDS011;42236;48.058;10.632;2023-03-04T14:20:49;31.27;;;17.03;;
56329;SDS011;42236;48.058;10.632;2023-03-04T14:23:36;32.37;;;17.00;;
56329;SDS011;42236;48.058;10.632;2023-03-04T14:26:22;29.27;;;16.57;;
56329;SDS011;42236;48.058;10.632;2023-03-04T14:29:21;43.57;;;17.93;;
56329;SDS011;42236;48.058;10.632;2023-03-04T14:32:09;27.63;;;17.13;;
56329;SDS011;42236;48.058;10.632;2023-03-04T14:34:57;30.43;;;15.73;;
56329;SDS011;42236;48.058;10.632;2023-03-04T14:38:33;31.33;;;16.13;;
56329;SDS011;42236;48.058;10.632;2023-03-04T14:41:14;21.57;;;13.37;;
56329;SDS011;42236;48.058;10.632;2023-03-04T14:46:59;23.70;;;14.03;;
56329;SDS011;42236;48.058;10.632;2023-03-04T14:49:57;34.57;;;15.10;;
56329;SDS011;42236;48.058;10.632;2023-03-04T14:52:44;24.43;;;12.40;;
56329;SDS011;42236;48.058;10.632;2023-03-04T14:55:31;32.00;;;15.83;;
56329;SDS011;42236;48.058;10.632;2023-03-04T14:58:24;29.30;;;16.10;;
56329;SDS011;42236;48.058;10.632;2023-03-04T15:01:16;27.53;;;14.80;;
56329;SDS011;42236;48.058;10.632;2023-03-04T15:04:06;26.33;;;14.30;;
56329;SDS011;42236;48.058;10.632;2023-03-04T15:06:54;27.57;;;15.70;;
56329;SDS011;42236;48.058;10.632;2023-03-04T15:09:40;25.10;;;14.70;;
56329;SDS011;42236;48.058;10.632;2023-03-04T15:12:30;26.67;;;13.70;;
56329;SDS011;42236;48.058;10.632;2023-03-04T15:18:28;25.20;;;13.80;;
56329;SDS011;42236;48.058;10.632;2023-03-04T15:24:06;27.87;;;14.03;;
56329;SDS011;42236;48.058;10.632;2023-03-04T15:26:53;23.00;;;11.57;;
56329;SDS011;42236;48.058;10.632;2023-03-04T15:29:39;27.37;;;13.90;;
56329;SDS011;42236;48.058;10.632;2023-03-04T15:32:25;19.97;;;11.50;;
56329;SDS011;42236;48.058;10.632;2023-03-04T15:35:16;19.00;;;10.73;;
56329;SDS011;42236;48.058;10.632;2023-03-04T15:38:03;23.10;;;13.20;;
56329;SDS011;42236;48.058;10.632;2023-03-04T15:40:51;22.13;;;12.60;;
56329;SDS011;42236;48.058;10.632;2023-03-04T15:43:38;16.03;;;9.10;;
56329;SDS011;42236;48.058;10.632;2023-03-04T15:46:23;20.63;;;11.50;;
56329;SDS011;42236;48.058;10.632;2023-03-04T15:49:09;20.43;;;11.43;;
56329;SDS011;42236;48.058;10.632;2023-03-04T15:51:55;27.23;;;13.33;;
56329;SDS011;42236;48.058;10.632;2023-03-04T15:54:40;19.97;;;9.87;;
56329;SDS011;42236;48.058;10.632;2023-03-04T15:57:26;23.90;;;11.93;;
56329;SDS011;42236;48.058;10.632;2023-03-04T16:00:12;18.93;;;10.37;;
56329;SDS011;42236;48.058;10.632;2023-03-04T16:02:59;25.00;;;11.30;;
56329;SDS011;42236;48.058;10.632;2023-03-04T16:05:45;21.37;;;10.97;;
56329;SDS011;42236;48.058;10.632;2023-03-04T16:08:32;21.27;;;11.73;;
56329;SDS011;42236;48.058;10.632;2023-03-04T16:11:22;21.77;;;10.83;;
56329;SDS011;42236;48.058;10.632;2023-03-04T16:14:10;19.77;;;10.57;;
56329;SDS011;42236;48.058;10.632;2023-03-04T16:16:56;22.13;;;10.43;;
56329;SDS011;42236;48.058;10.632;2023-03-04T16:19:41;25.93;;;12.00;;
56329;SDS011;42236;48.058;10.632;2023-03-04T16:22:27;26.33;;;12.60;;
56329;SDS011;42236;48.058;10.632;2023-03-04T16:25:15;20.43;;;10.07;;
56329;SDS011;42236;48.058;10.632;2023-03-04T16:28:02;24.17;;;11.80;;
56329;SDS011;42236;48.058;10.632;2023-03-04T16:30:48;17.27;;;9.20;;
56329;SDS011;42236;48.058;10.632;2023-03-04T16:33:34;19.60;;;9.30;;
56329;SDS011;42236;48.058;10.632;2023-03-04T16:36:21;17.43;;;9.13;;
56329;SDS011;42236;48.058;10.632;2023-03-04T16:39:12;20.63;;;10.10;;
56329;SDS011;42236;48.058;10.632;2023-03-04T16:42:08;19.00;;;8.97;;
56329;SDS011;42236;48.058;10.632;2023-03-04T16:44:59;19.53;;;9.97;;
56329;SDS011;42236;48.058;10.632;2023-03-04T16:47:45;15.37;;;8.47;;
56329;SDS011;42236;48.058;10.632;2023-03-04T16:50:31;20.03;;;9.37;;
56329;SDS011;42236;48.058;10.632;2023-03-04T16:53:22;18.93;;;9.67;;
56329;SDS011;42236;48.058;10.632;2023-03-04T16:56:16;22.40;;;10.50;;
56329;SDS011;42236;48.058;10.632;2023-03-04T16:59:03;20.83;;;11.13;;
56329;SDS011;42236;48.058;10.632;2023-03-04T17:01:48;18.53;;;10.10;;
56329;SDS011;42236;48.058;10.632;2023-03-04T17:04:34;21.13;;;10.27;;
56329;SDS011;42236;48.058;10.632;2023-03-04T17:07:20;23.73;;;10.67;;
56329;SDS011;42236;48.058;10.632;2023-03-04T17:10:05;20.53;;;9.93;;
56329;SDS011;42236;48.058;10.632;2023-03-04T17:12:51;20.67;;;10.97;;
56329;SDS011;42236;48.058;10.632;2023-03-04T17:15:37;22.87;;;10.53;;
56329;SDS011;42236;48.058;10.632;2023-03-04T17:18:23;21.47;;;11.60;;
56329;SDS011;42236;48.058;10.632;2023-03-04T17:21:16;28.47;;;12.27;;
56329;SDS011;42236;48.058;10.632;2023-03-04T17:24:04;24.30;;;11.70;;
56329;SDS011;42236;48.058;10.632;2023-03-04T17:26:50;17.87;;;9.87;;
56329;SDS011;42236;48.058;10.632;2023-03-04T17:29:36;17.93;;;9.50;;
56329;SDS011;42236;48.058;10.632;2023-03-04T17:32:21;20.07;;;9.40;;
56329;SDS011;42236;48.058;10.632;2023-03-04T17:35:07;18.47;;;10.20;;
56329;SDS011;42236;48.058;10.632;2023-03-04T17:37:54;18.20;;;10.03;;
56329;SDS011;42236;48.058;10.632;2023-03-04T17:40:40;20.13;;;10.10;;
56329;SDS011;42236;48.058;10.632;2023-03-04T17:43:26;36.70;;;19.53;;
56329;SDS011;42236;48.058;10.632;2023-03-04T17:46:12;20.13;;;10.27;;
56329;SDS011;42236;48.058;10.632;2023-03-04T17:48:59;17.10;;;9.43;;
56329;SDS011;42236;48.058;10.632;2023-03-04T17:51:45;17.50;;;9.77;;